Niagara-On-The-Lake, Canada
Current Conditions -  °F | °C
As of 11:00 AM on Saturday 20 Dec 2014 (Local Time) from CYSN Reporting Station
Broken Clouds Broken Clouds  
Wind Chill: 28°   Ceiling: 1800
Heat Index: 28°   Visibility: 15mi
Dew Point: 23°   Wind: 3mph
Humidity: 80%   Direction: 310°NW
Pressure: 30.3"   Gusts: NA
Location:  43.25°N, 79.07°W
Report Text: CYSN 201600Z 31003KT 210V020 15SM BKN018 M02/M05 A3030 RMK SC7 SLP266
Loading
Personal Weather Stations






























Interactive Weather Map New forecast layout! Learn more

10-Day Weather Forecast

Advertisements
Track Severe Weather on mobile